Terminal Aerodrome Forecast
Issued by NWS

Home | Current Version | Previous Version | Text Only | Print | Product List | Glossary Off
Versions: 1 2 3 4 5 6 7 8 9 10 11 12 13 14 15 16 17

751
FTUS43 KUNR 281528 AAB
TAFGCC
TAF AMD
KGCC 281528Z 2815/2912 28008KT P6SM VCTS SCT100CB
      TEMPO 2815/2818 BKN025CB
     FM281800 35012KT P6SM SCT100
     FM290100 VRB06KT P6SM SKC=

USA.gov is the U.S. government's official web portal to all federal, state and local government web resources and services.